createdAt,value
2018-02-06T00:01:56.894Z,2.60
2018-02-06T00:04:24.401Z,2.60
2018-02-06T00:06:51.946Z,2.60
2018-02-06T00:09:19.453Z,2.50
2018-02-06T00:11:46.992Z,2.50
2018-02-06T00:14:14.495Z,2.50
2018-02-06T00:16:42.045Z,2.50
2018-02-06T00:19:09.582Z,2.50
2018-02-06T00:21:37.866Z,2.50
2018-02-06T00:24:06.133Z,2.50
2018-02-06T00:26:34.419Z,2.50
2018-02-06T00:29:02.690Z,2.50
2018-02-06T00:31:30.977Z,2.50
2018-02-06T00:33:59.245Z,2.50
2018-02-06T00:36:27.557Z,2.50
2018-02-06T00:38:55.064Z,2.50
2018-02-06T00:41:22.611Z,2.50
2018-02-06T00:43:50.129Z,2.50
2018-02-06T00:46:17.630Z,2.50
2018-02-06T00:48:45.159Z,2.50
2018-02-06T00:51:12.670Z,2.50
2018-02-06T00:53:40.958Z,2.50
2018-02-06T00:56:09.230Z,2.50
2018-02-06T00:58:37.527Z,2.50
2018-02-06T01:01:05.046Z,2.50
2018-02-06T01:03:32.569Z,2.50
2018-02-06T01:06:00.070Z,2.50
2018-02-06T01:08:27.594Z,2.50
2018-02-06T01:10:55.093Z,2.50
2018-02-06T01:13:23.377Z,2.50
2018-02-06T01:15:51.674Z,2.50
2018-02-06T01:18:19.193Z,2.50
2018-02-06T01:20:46.694Z,2.50
2018-02-06T01:23:14.221Z,2.50
2018-02-06T01:25:41.721Z,2.50
2018-02-06T01:28:10.184Z,2.50
2018-02-06T01:30:37.709Z,2.50
2018-02-06T01:33:05.252Z,2.50
2018-02-06T01:35:32.761Z,2.50
2018-02-06T01:38:01.046Z,2.50
2018-02-06T01:40:28.573Z,2.50
2018-02-06T01:42:56.078Z,2.50
2018-02-06T01:45:23.618Z,2.50
2018-02-06T01:47:51.129Z,2.60
2018-02-06T01:50:18.650Z,2.50
2018-02-06T01:52:46.153Z,2.50
2018-02-06T01:55:13.673Z,2.50
2018-02-06T01:57:41.183Z,2.50
2018-02-06T02:00:08.709Z,2.50
2018-02-06T02:02:36.225Z,2.50
2018-02-06T02:05:03.757Z,2.50
2018-02-06T02:07:31.258Z,2.50
2018-02-06T02:09:58.783Z,2.50
2018-02-06T02:12:26.296Z,2.50
2018-02-06T02:14:53.813Z,2.50
2018-02-06T02:17:22.089Z,2.50
2018-02-06T02:19:50.393Z,2.50
2018-02-06T02:22:17.906Z,2.50
2018-02-06T02:24:45.440Z,2.50
2018-02-06T02:27:12.949Z,2.50
2018-02-06T02:29:41.233Z,2.50
2018-02-06T02:32:09.512Z,2.50
2018-02-06T02:34:37.072Z,2.50
2018-02-06T02:37:05.322Z,2.50
2018-02-06T02:39:32.859Z,2.50
2018-02-06T04:40:08.670Z,2.30
2018-02-06T04:42:36.958Z,2.40
2018-02-06T04:45:04.471Z,2.30
2018-02-06T04:47:32.030Z,2.40
2018-02-06T04:49:59.532Z,2.40
2018-02-06T04:52:27.070Z,2.40
2018-02-06T04:54:54.582Z,2.30
2018-02-06T04:57:22.894Z,2.40
2018-02-06T04:59:50.403Z,2.30
2018-02-06T05:02:18.698Z,2.30
2018-02-06T05:04:46.198Z,2.30
2018-02-06T05:07:13.722Z,2.30
2018-02-06T05:09:41.262Z,2.30
2018-02-06T05:12:08.783Z,2.30
2018-02-06T05:14:37.073Z,2.30
2018-02-06T05:17:07.297Z,2.30
2018-02-06T05:19:35.600Z,2.30
2018-02-06T05:22:03.108Z,2.30
2018-02-06T05:24:30.634Z,2.30
2018-02-06T05:26:58.133Z,2.30
2018-02-06T05:29:26.446Z,2.30
2018-02-06T05:31:53.950Z,2.20
2018-02-06T05:34:21.477Z,2.30
2018-02-06T05:36:48.993Z,2.30
2018-02-06T05:39:17.298Z,2.30
2018-02-06T05:41:44.819Z,2.30
2018-02-06T05:44:12.350Z,2.30
2018-02-06T05:46:39.865Z,2.30
2018-02-06T05:49:08.152Z,2.30
2018-02-06T05:51:35.669Z,2.30
2018-02-06T05:54:03.224Z,2.30
2018-02-06T05:56:30.730Z,2.30
2018-02-06T05:58:58.267Z,2.30
2018-02-06T06:01:26.549Z,2.30
2018-02-06T06:03:54.874Z,2.30
2018-02-06T06:06:22.398Z,2.30
2018-02-06T06:08:50.680Z,2.30
2018-02-06T06:11:18.184Z,2.30
2018-02-06T06:13:45.753Z,2.30
2018-02-06T06:16:13.270Z,2.30
2018-02-06T06:18:40.781Z,2.30
2018-02-06T06:21:08.306Z,2.40
2018-02-06T06:23:35.850Z,2.30
2018-02-06T06:26:03.369Z,2.30
2018-02-06T06:28:31.657Z,2.40
2018-02-06T06:30:59.974Z,2.40
2018-02-06T06:33:27.488Z,2.30
2018-02-06T06:35:55.053Z,2.30
2018-02-06T06:38:23.322Z,2.30
2018-02-06T06:40:51.623Z,2.40
2018-02-06T06:43:19.141Z,2.30
2018-02-06T06:45:46.674Z,2.40
2018-02-06T06:48:14.185Z,2.40
2018-02-06T06:50:42.486Z,2.40
2018-02-06T06:53:09.993Z,2.40
2018-02-06T06:55:37.521Z,2.40
2018-02-06T06:58:05.792Z,2.40
2018-02-06T07:00:33.332Z,2.40
2018-02-06T07:03:00.841Z,2.40
2018-02-06T07:05:28.348Z,2.40
2018-02-06T07:07:55.877Z,2.40
2018-02-06T07:10:23.433Z,2.40
2018-02-06T07:12:50.960Z,2.40
2018-02-06T07:15:18.507Z,2.40
2018-02-06T07:17:46.029Z,2.40
2018-02-06T07:20:14.302Z,2.40
2018-02-06T07:22:42.593Z,2.40
2018-02-06T07:25:10.857Z,2.40
2018-02-06T07:27:39.181Z,2.40
2018-02-06T07:30:06.698Z,2.40
2018-02-06T07:32:34.995Z,2.50
2018-02-06T07:35:02.494Z,2.40
2018-02-06T07:37:30.113Z,2.50
2018-02-06T07:39:57.617Z,2.50
2018-02-06T07:42:25.145Z,2.50
2018-02-06T07:44:52.687Z,2.50
2018-02-06T07:47:20.221Z,2.50
2018-02-06T07:49:48.497Z,2.50
2018-02-06T07:52:16.797Z,2.60
2018-02-06T07:54:44.331Z,2.50
2018-02-06T07:57:11.842Z,2.60
2018-02-06T07:59:39.371Z,2.60
2018-02-06T08:02:06.882Z,2.60
2018-02-06T08:04:34.413Z,2.60
2018-02-06T08:07:02.105Z,2.60
2018-02-06T08:09:29.641Z,2.70
2018-02-06T08:11:57.199Z,2.70
2018-02-06T08:14:24.758Z,2.70
2018-02-06T08:16:52.272Z,2.70
2018-02-06T08:19:20.602Z,2.70
2018-02-06T08:21:48.129Z,2.70
2018-02-06T08:24:16.421Z,2.70
2018-02-06T08:26:43.946Z,2.70
2018-02-06T08:29:11.469Z,2.70
2018-02-06T08:31:38.973Z,2.70
2018-02-06T08:34:07.264Z,2.80
2018-02-06T08:36:34.769Z,2.70
2018-02-06T08:39:02.322Z,2.80
2018-02-06T08:41:29.829Z,2.80
2018-02-06T08:43:58.098Z,2.80
2018-02-06T08:46:26.406Z,2.80
2018-02-06T08:48:53.924Z,2.80
2018-02-06T08:51:21.461Z,2.80
2018-02-06T08:53:48.963Z,2.90
2018-02-06T08:56:17.258Z,3.00
2018-02-06T08:58:45.533Z,3.00
2018-02-06T09:01:13.057Z,3.00
2018-02-06T09:03:40.563Z,3.00
2018-02-06T09:06:08.158Z,3.00
2018-02-06T09:08:35.686Z,3.10
2018-02-06T09:11:03.210Z,3.10
2018-02-06T09:13:31.478Z,3.10
2018-02-06T09:15:59.001Z,3.10
2018-02-06T09:18:26.515Z,3.20
2018-02-06T09:20:54.802Z,3.30
2018-02-06T09:23:22.330Z,3.20
2018-02-06T09:25:50.670Z,3.30
2018-02-06T09:28:18.216Z,3.30
2018-02-06T09:30:45.757Z,3.40
2018-02-06T09:33:13.278Z,3.40
2018-02-06T09:35:40.838Z,3.40
2018-02-06T09:38:08.364Z,3.40
2018-02-06T09:40:35.871Z,3.50
2018-02-06T09:43:03.394Z,3.50
2018-02-06T09:45:30.952Z,3.50
2018-02-06T09:47:58.525Z,3.60
2018-02-06T09:50:26.038Z,3.60
2018-02-06T09:52:53.562Z,3.70
2018-02-06T09:55:21.082Z,3.70
2018-02-06T09:57:48.630Z,3.70
2018-02-06T10:00:16.126Z,3.70
2018-02-06T10:02:43.656Z,3.70
2018-02-06T10:05:11.161Z,3.70
2018-02-06T10:07:38.724Z,3.80
2018-02-06T10:10:07.012Z,3.80
2018-02-06T10:12:34.534Z,3.80
2018-02-06T10:15:02.068Z,3.80
2018-02-06T10:17:29.575Z,3.90
2018-02-06T10:19:57.090Z,3.90
2018-02-06T10:22:24.590Z,3.90
2018-02-06T10:24:52.159Z,3.90
2018-02-06T10:27:19.658Z,4.00
2018-02-06T10:29:47.181Z,3.90
2018-02-06T10:32:15.461Z,4.00
2018-02-06T10:34:43.749Z,4.00
2018-02-06T10:37:11.254Z,4.00
2018-02-06T10:39:38.781Z,4.10
2018-02-06T10:42:06.285Z,4.10
2018-02-06T10:44:33.822Z,4.10
2018-02-06T10:47:01.337Z,4.20
2018-02-06T10:49:29.624Z,4.30
2018-02-06T10:51:57.138Z,4.20
2018-02-06T10:54:24.659Z,4.30
2018-02-06T10:56:52.162Z,4.30
2018-02-06T10:59:20.453Z,4.40
2018-02-06T11:01:47.985Z,4.40
2018-02-06T11:04:15.515Z,4.50
2018-02-06T11:06:43.046Z,4.60
2018-02-06T11:09:11.320Z,4.60
2018-02-06T11:11:39.613Z,4.60
2018-02-06T11:14:07.113Z,4.60
2018-02-06T11:16:34.635Z,4.70
2018-02-06T11:19:02.134Z,4.70
2018-02-06T11:21:29.653Z,4.70
2018-02-06T11:23:57.158Z,4.80
2018-02-06T11:26:24.678Z,4.80
2018-02-06T11:28:52.179Z,4.80
2018-02-06T11:31:19.718Z,4.80
2018-02-06T11:33:47.222Z,4.90
2018-02-06T11:36:15.513Z,4.90
2018-02-06T11:38:43.781Z,4.90
2018-02-06T11:41:12.074Z,4.90
2018-02-06T11:43:39.572Z,4.90
2018-02-06T11:46:07.077Z,4.90
2018-02-06T11:48:35.370Z,5.00
2018-02-06T11:51:02.971Z,5.00
2018-02-06T11:53:30.566Z,5.00
2018-02-06T11:55:58.146Z,5.00
2018-02-06T11:58:26.434Z,5.00
2018-02-06T12:00:53.946Z,5.00
2018-02-06T12:03:21.474Z,5.10
2018-02-06T12:05:48.977Z,5.10
2018-02-06T12:08:16.584Z,5.10
2018-02-06T12:10:44.087Z,5.10
2018-02-06T12:13:11.615Z,5.10
2018-02-06T12:15:39.117Z,5.20
2018-02-06T12:18:07.449Z,5.20
2018-02-06T12:20:34.962Z,5.20
2018-02-06T12:23:03.232Z,5.30
2018-02-06T12:25:30.754Z,5.30
2018-02-06T12:27:58.336Z,5.30
2018-02-06T12:30:25.861Z,5.40
2018-02-06T12:32:53.362Z,5.40
2018-02-06T12:35:20.898Z,5.40
2018-02-06T12:37:48.434Z,5.50
2018-02-06T12:40:15.962Z,5.50
2018-02-06T12:42:44.237Z,5.50
2018-02-06T12:45:12.538Z,5.50
2018-02-06T12:47:40.042Z,5.50
2018-02-06T12:50:07.575Z,5.50
2018-02-06T12:52:35.090Z,5.50
2018-02-06T12:55:03.405Z,5.50
2018-02-06T12:57:30.967Z,5.50
2018-02-06T12:59:58.501Z,5.50
2018-02-06T13:02:26.015Z,5.50
2018-02-06T13:04:55.122Z,5.50
2018-02-06T13:07:22.646Z,5.50
2018-02-06T13:09:50.148Z,5.50
2018-02-06T13:12:17.687Z,5.50
2018-02-06T13:14:45.189Z,5.50
2018-02-06T13:17:12.713Z,5.60
2018-02-06T13:19:40.233Z,5.60
2018-02-06T13:22:07.769Z,5.60
2018-02-06T13:24:36.042Z,5.60
2018-02-06T13:27:04.392Z,5.60
2018-02-06T13:29:31.881Z,5.60
2018-02-06T13:31:59.408Z,5.60
2018-02-06T13:34:26.921Z,5.60
2018-02-06T13:36:54.457Z,5.70
2018-02-06T13:39:21.970Z,5.70
2018-02-06T13:41:49.498Z,5.70
2018-02-06T13:44:17.002Z,5.70
2018-02-06T13:46:44.546Z,5.80
2018-02-06T13:49:12.077Z,5.80
2018-02-06T13:51:39.587Z,5.80
2018-02-06T13:54:07.113Z,5.80
2018-02-06T13:56:34.621Z,5.80
2018-02-06T13:59:02.932Z,5.80
2018-02-06T14:01:30.467Z,5.80
2018-02-06T14:03:58.785Z,5.80
2018-02-06T14:06:26.302Z,5.80
2018-02-06T14:08:54.610Z,5.90
2018-02-06T14:11:22.129Z,5.80
2018-02-06T14:13:50.434Z,5.80
2018-02-06T14:16:17.950Z,5.80
2018-02-06T14:18:45.475Z,5.90
2018-02-06T14:21:12.991Z,5.80
2018-02-06T14:23:41.363Z,5.80
2018-02-06T14:26:09.642Z,5.80
2018-02-06T14:28:37.923Z,5.80
2018-02-06T14:31:06.198Z,5.80
2018-02-06T14:33:38.907Z,5.80
2018-02-06T14:36:06.433Z,5.80
2018-02-06T14:38:34.713Z,5.80
2018-02-06T14:41:03.010Z,5.80
2018-02-06T14:43:30.550Z,5.80
2018-02-06T14:45:58.844Z,5.80
2018-02-06T14:48:26.350Z,5.80
2018-02-06T14:50:53.882Z,5.80
2018-02-06T14:53:22.162Z,5.80
2018-02-06T14:55:49.697Z,5.80
2018-02-06T14:58:17.201Z,5.80
2018-02-06T15:00:44.725Z,5.80
2018-02-06T15:03:12.237Z,5.80
2018-02-06T15:05:39.768Z,5.80
2018-02-06T15:08:07.269Z,5.80
2018-02-06T15:10:34.798Z,5.70
2018-02-06T15:13:02.323Z,5.70
2018-02-06T15:15:29.869Z,5.70
2018-02-06T15:17:57.397Z,5.70
2018-02-06T15:20:24.934Z,5.70
2018-02-06T15:22:52.461Z,5.70
2018-02-06T15:25:19.997Z,5.60
2018-02-06T15:27:49.036Z,5.60
2018-02-06T15:30:16.658Z,5.60
2018-02-06T15:32:47.490Z,5.60
2018-02-06T15:35:15.069Z,5.50
2018-02-06T15:37:42.625Z,5.50
2018-02-06T15:40:10.130Z,5.50
2018-02-06T15:42:37.678Z,5.50
2018-02-06T15:45:05.734Z,5.40
2018-02-06T15:47:34.300Z,5.40
2018-02-06T15:50:01.802Z,5.40
2018-02-06T15:52:29.322Z,5.30
2018-02-06T15:54:56.849Z,5.30
2018-02-06T15:57:24.383Z,5.30
2018-02-06T15:59:51.895Z,5.30
2018-02-06T16:02:19.422Z,5.20
2018-02-06T16:04:46.936Z,5.20
2018-02-06T16:07:14.470Z,5.20
2018-02-06T16:09:42.746Z,5.10
2018-02-06T16:12:11.045Z,5.10
2018-02-06T16:14:38.656Z,5.10
2018-02-06T16:17:06.185Z,5.10
2018-02-06T16:19:33.717Z,5.00
2018-02-06T16:22:01.234Z,5.00
2018-02-06T16:24:28.735Z,4.90
2018-02-06T16:26:56.264Z,4.90
2018-02-06T16:29:24.551Z,4.80
2018-02-06T16:31:52.830Z,4.80
2018-02-06T16:34:21.186Z,4.80
2018-02-06T16:36:48.704Z,4.80
2018-02-06T16:39:16.238Z,4.70
2018-02-06T16:41:43.737Z,4.70
2018-02-06T16:44:11.270Z,4.70
2018-02-06T16:46:38.775Z,4.60
2018-02-06T16:49:06.339Z,4.60
2018-02-06T16:51:33.972Z,4.60
2018-02-06T16:54:01.521Z,4.50
2018-02-06T16:56:29.057Z,4.50
2018-02-06T16:58:56.646Z,4.50
2018-02-06T17:01:24.159Z,4.40
2018-02-06T17:03:52.441Z,4.40
2018-02-06T17:06:20.709Z,4.40
2018-02-06T17:08:49.019Z,4.30
2018-02-06T17:11:16.508Z,4.30
2018-02-06T17:13:44.038Z,4.30
2018-02-06T17:16:11.561Z,4.30
2018-02-06T17:18:39.893Z,4.20
2018-02-06T17:21:07.398Z,4.20
2018-02-06T17:23:35.672Z,4.10
2018-02-06T17:26:03.199Z,4.10
2018-02-06T17:28:30.706Z,4.10
2018-02-06T17:30:58.991Z,4.00
2018-02-06T17:33:26.501Z,4.10
2018-02-06T17:35:54.034Z,4.00
2018-02-06T17:38:21.538Z,4.00
2018-02-06T17:40:49.073Z,4.00
2018-02-06T17:43:16.582Z,4.00
2018-02-06T17:45:44.862Z,3.90
2018-02-06T17:48:13.131Z,3.90
2018-02-06T17:50:41.426Z,3.90
2018-02-06T17:53:08.926Z,3.80
2018-02-06T17:55:36.438Z,3.80
2018-02-06T17:58:03.944Z,3.80
2018-02-06T18:00:31.458Z,3.80
2018-02-06T18:02:58.976Z,3.80
2018-02-06T18:05:26.590Z,3.70
2018-02-06T18:07:54.094Z,3.70
2018-02-06T18:10:21.632Z,3.70
2018-02-06T18:12:49.157Z,3.70
2018-02-06T18:15:16.832Z,3.70
2018-02-06T18:17:44.318Z,3.60
2018-02-06T18:20:11.840Z,3.60
2018-02-06T18:22:39.357Z,3.60
2018-02-06T18:25:06.869Z,3.60
2018-02-06T18:27:35.171Z,3.60
2018-02-06T18:30:02.678Z,3.50
2018-02-06T18:32:30.963Z,3.50
2018-02-06T18:34:58.495Z,3.50
2018-02-06T18:37:26.031Z,3.50
2018-02-06T18:39:53.546Z,3.50
2018-02-06T18:42:21.069Z,3.40
2018-02-06T18:44:48.570Z,3.40
2018-02-06T18:47:16.147Z,3.40
2018-02-06T18:49:43.657Z,3.40
2018-02-06T18:52:11.210Z,3.30
2018-02-06T18:54:38.710Z,3.30
2018-02-06T18:57:06.326Z,3.30
2018-02-06T18:59:33.825Z,3.30
2018-02-06T19:02:01.338Z,3.20
2018-02-06T19:04:31.044Z,3.20
2018-02-06T19:06:58.549Z,3.20
2018-02-06T19:09:26.834Z,3.20
2018-02-06T19:11:54.410Z,3.20
2018-02-06T19:14:21.954Z,3.20
2018-02-06T19:16:49.530Z,3.20
2018-02-06T19:19:17.071Z,3.10
2018-02-06T19:21:44.581Z,3.10
2018-02-06T19:24:12.098Z,3.10
2018-02-06T19:26:39.606Z,3.10
2018-02-06T19:29:07.130Z,3.10
2018-02-06T19:31:34.686Z,3.10
2018-02-06T19:34:03.087Z,3.10
2018-02-06T19:36:30.586Z,3.10
2018-02-06T19:38:58.970Z,3.10
2018-02-06T19:41:27.293Z,3.00
2018-02-06T19:43:54.874Z,3.00
2018-02-06T19:46:23.222Z,3.00
2018-02-06T19:48:50.790Z,3.00
2018-02-06T19:51:18.292Z,3.00
2018-02-06T19:53:46.636Z,2.90
2018-02-06T19:56:14.211Z,2.90
2018-02-06T19:58:41.848Z,2.90
2018-02-06T20:01:09.362Z,2.90
2018-02-06T20:03:37.637Z,2.90
2018-02-06T20:06:05.982Z,2.90
2018-02-06T20:08:33.485Z,2.90
2018-02-06T20:11:01.012Z,2.90
2018-02-06T20:13:28.521Z,2.90
2018-02-06T20:15:56.105Z,2.90
2018-02-06T20:18:23.646Z,2.80
2018-02-06T20:20:51.227Z,2.80
2018-02-06T20:23:18.741Z,2.80
2018-02-06T20:25:46.293Z,2.80
2018-02-06T20:28:13.822Z,2.80
2018-02-06T20:30:41.350Z,2.80
2018-02-06T20:33:08.913Z,2.70
2018-02-06T20:35:37.202Z,2.70
2018-02-06T20:38:04.727Z,2.70
2018-02-06T20:40:32.309Z,2.70
2018-02-06T20:43:00.602Z,2.60
2018-02-06T20:45:28.939Z,2.60
2018-02-06T20:47:56.465Z,2.60
2018-02-06T20:50:24.015Z,2.60
2018-02-06T20:52:51.592Z,2.60
2018-02-06T20:55:19.164Z,2.60
2018-02-06T20:57:46.834Z,2.50
2018-02-06T21:00:14.378Z,2.50
2018-02-06T21:02:41.897Z,2.50
2018-02-06T21:05:10.224Z,2.40
2018-02-06T21:07:37.738Z,2.40
2018-02-06T21:10:06.051Z,2.40
2018-02-06T21:12:33.947Z,2.40
2018-02-06T21:15:01.536Z,2.40
2018-02-06T21:17:29.842Z,2.30
2018-02-06T21:19:57.354Z,2.30
2018-02-06T21:22:24.973Z,2.30
2018-02-06T21:24:52.486Z,2.30
2018-02-06T21:27:20.828Z,2.30
2018-02-06T21:29:48.337Z,2.30
2018-02-06T21:32:15.881Z,2.30
2018-02-06T21:34:44.231Z,2.20
2018-02-06T21:37:11.737Z,2.20
2018-02-06T21:39:40.030Z,2.20
2018-02-06T21:42:07.586Z,2.20
2018-02-06T21:44:35.160Z,2.20
2018-02-06T21:47:02.723Z,2.20
2018-02-06T21:49:30.254Z,2.20
2018-02-06T21:51:58.580Z,2.10
2018-02-06T21:54:26.110Z,2.10
2018-02-06T21:56:53.663Z,2.10
2018-02-06T21:59:21.187Z,2.10
2018-02-06T22:01:48.709Z,2.10
2018-02-06T22:04:16.234Z,2.10
2018-02-06T22:06:44.557Z,2.10
2018-02-06T22:09:12.085Z,2.10
2018-02-06T22:11:39.595Z,2.10
2018-02-06T22:14:07.112Z,2.10
2018-02-06T22:16:34.629Z,2.10
2018-02-06T22:19:02.984Z,2.00
2018-02-06T22:21:30.505Z,2.00
2018-02-06T22:23:58.014Z,2.00
2018-02-06T22:26:25.540Z,2.00
2018-02-06T22:28:53.816Z,2.00
2018-02-06T22:31:21.340Z,2.00
2018-02-06T22:33:49.604Z,2.00
2018-02-06T22:36:17.988Z,2.00
2018-02-06T22:38:46.266Z,2.00
2018-02-06T22:41:14.574Z,1.90
2018-02-06T22:43:42.069Z,1.90
2018-02-06T22:46:09.588Z,1.90
2018-02-06T22:48:37.099Z,1.90
2018-02-06T22:51:05.410Z,1.90
2018-02-06T22:53:32.913Z,1.90
2018-02-06T22:56:00.439Z,1.90
2018-02-06T22:58:27.943Z,1.90
2018-02-06T23:00:55.465Z,1.80
2018-02-06T23:03:22.969Z,1.80
2018-02-06T23:05:50.555Z,1.80
2018-02-06T23:08:18.036Z,1.80
2018-02-06T23:10:45.610Z,1.80
2018-02-06T23:13:13.121Z,1.80
2018-02-06T23:15:41.397Z,1.70
2018-02-06T23:18:09.705Z,1.70
2018-02-06T23:20:37.211Z,1.70
2018-02-06T23:23:05.723Z,1.70
2018-02-06T23:25:34.020Z,1.70
2018-02-06T23:28:01.593Z,1.70
2018-02-06T23:30:29.097Z,1.70
2018-02-06T23:32:56.633Z,1.70
2018-02-06T23:35:24.142Z,1.60
2018-02-06T23:37:52.438Z,1.60
2018-02-06T23:40:19.953Z,1.60
2018-02-06T23:42:47.570Z,1.60
2018-02-06T23:45:15.066Z,1.60
2018-02-06T23:47:42.588Z,1.60
2018-02-06T23:50:10.148Z,1.60
2018-02-06T23:52:37.665Z,1.50
2018-02-06T23:55:05.194Z,1.50
2018-02-06T23:57:32.777Z,1.50
